createdAt,value
2018-05-18T00:00:44.247Z,98363.86
2018-05-18T00:01:47.057Z,98367.38
2018-05-18T00:02:51.494Z,98357.73
2018-05-18T00:03:55.484Z,98361.50
2018-05-18T00:04:58.492Z,98359.36
2018-05-18T00:06:01.258Z,98361.59
2018-05-18T00:07:04.436Z,98360.85
2018-05-18T00:08:08.081Z,98365.62
2018-05-18T00:09:11.339Z,98364.33
2018-05-18T00:10:14.180Z,98364.25
2018-05-18T00:11:16.980Z,98363.52
2018-05-18T00:12:20.310Z,98366.25
2018-05-18T00:13:23.090Z,98374.16
2018-05-18T00:14:25.849Z,98369.55
2018-05-18T00:15:29.245Z,98370.06
2018-05-18T00:16:32.748Z,98368.13
2018-05-18T00:17:35.664Z,98361.38
2018-05-18T00:18:38.480Z,98372.75
2018-05-18T00:19:42.159Z,98371.70
2018-05-18T00:20:46.019Z,98371.96
2018-05-18T00:21:50.157Z,98369.17
2018-05-18T00:22:53.085Z,98369.27
2018-05-18T00:23:55.883Z,98377.41
2018-05-18T00:24:58.657Z,98378.52
2018-05-18T00:26:03.669Z,98371.38
2018-05-18T00:27:06.863Z,98369.98
2018-05-18T00:28:10.041Z,98372.61
2018-05-18T00:29:12.842Z,98372.91
2018-05-18T00:30:15.683Z,98370.06
2018-05-18T00:31:18.881Z,98371.98
2018-05-18T00:32:21.676Z,98369.83
2018-05-18T00:33:24.471Z,98369.45
2018-05-18T00:34:29.171Z,98371.11
2018-05-18T00:35:33.307Z,98368.53
2018-05-18T00:36:36.321Z,98367.48
2018-05-18T00:37:39.090Z,98366.33
2018-05-18T00:38:41.888Z,98368.29
2018-05-18T00:39:44.821Z,98362.75
2018-05-18T00:40:48.275Z,98370.64
2018-05-18T00:41:51.067Z,98369.83
2018-05-18T00:42:53.839Z,98366.25
2018-05-18T00:43:56.781Z,98372.45
2018-05-18T00:44:59.785Z,98369.48
2018-05-18T00:46:02.596Z,98369.48
2018-05-18T00:47:05.851Z,98361.70
2018-05-18T00:48:09.706Z,98367.65
2018-05-18T00:49:13.429Z,98369.97
2018-05-18T00:50:16.730Z,98368.48
2018-05-18T00:51:19.531Z,98360.78
2018-05-18T00:52:22.327Z,98369.75
2018-05-18T00:53:25.981Z,98368.89
2018-05-18T00:54:28.970Z,98367.44
2018-05-18T00:55:31.912Z,98364.72
2018-05-18T00:56:34.700Z,98371.30
2018-05-18T00:57:37.476Z,98367.81
2018-05-18T00:58:41.219Z,98367.77
2018-05-18T00:59:45.341Z,98380.43
2018-05-18T01:00:48.193Z,98368.15
2018-05-18T01:01:50.991Z,98364.55
2018-05-18T01:02:54.871Z,98378.46
2018-05-18T01:03:58.386Z,98374.25
2018-05-18T01:05:02.255Z,98371.52
2018-05-18T01:06:05.428Z,98372.27
2018-05-18T01:07:08.206Z,98371.42
2018-05-18T01:08:11.088Z,98368.30
2018-05-18T01:09:14.656Z,98367.27
2018-05-18T01:10:17.474Z,98370.61
2018-05-18T01:11:27.687Z,98366.67
2018-05-18T01:12:30.690Z,98369.58
2018-05-18T01:13:33.459Z,98365.62
2018-05-18T01:14:36.206Z,98367.52
2018-05-18T01:15:39.812Z,98370.57
2018-05-18T01:16:43.398Z,98367.61
2018-05-18T01:17:46.661Z,98368.72
2018-05-18T01:18:49.450Z,98373.73
2018-05-18T01:19:52.401Z,98366.70
2018-05-18T01:20:55.920Z,98367.61
2018-05-18T01:21:58.693Z,98364.13
2018-05-18T01:23:01.509Z,98363.48
2018-05-18T01:24:04.970Z,98364.69
2018-05-18T01:25:08.077Z,98362.80
2018-05-18T01:26:10.875Z,98360.27
2018-05-18T01:27:13.664Z,98360.66
2018-05-18T01:28:16.430Z,98358.76
2018-05-18T01:29:20.350Z,98353.13
2018-05-18T01:30:24.113Z,98356.69
2018-05-18T01:31:26.882Z,98356.91
2018-05-18T01:32:29.653Z,98353.75
2018-05-18T01:33:32.687Z,98361.34
2018-05-18T01:34:35.981Z,98363.66
2018-05-18T01:35:39.290Z,98363.39
2018-05-18T01:36:42.068Z,98366.79
2018-05-18T01:37:45.017Z,98359.97
2018-05-18T01:38:48.221Z,98367.27
2018-05-18T01:39:50.973Z,98365.24
2018-05-18T01:40:53.745Z,98364.55
2018-05-18T01:41:57.701Z,98368.28
2018-05-18T01:43:01.828Z,98363.30
2018-05-18T01:44:05.113Z,98361.52
2018-05-18T01:45:08.042Z,98363.56
2018-05-18T01:46:10.801Z,98365.36
2018-05-18T01:47:13.871Z,98355.16
2018-05-18T01:48:17.388Z,98357.43
2018-05-18T01:49:20.148Z,98357.09
2018-05-18T01:50:22.882Z,98352.69
2018-05-18T01:51:26.281Z,98356.12
2018-05-18T01:52:30.542Z,98357.52
2018-05-18T01:53:33.389Z,98353.98
2018-05-18T01:54:36.629Z,98354.06
2018-05-18T01:55:39.378Z,98354.06
2018-05-18T01:56:42.830Z,98347.80
2018-05-18T01:57:45.663Z,98354.17
2018-05-18T01:58:48.473Z,98353.19
2018-05-18T01:59:51.288Z,98349.20
2018-05-18T02:00:56.111Z,98356.84
2018-05-18T02:01:59.018Z,98347.41
2018-05-18T02:03:01.812Z,98353.50
2018-05-18T02:04:04.573Z,98352.47
2018-05-18T02:05:07.741Z,98357.66
2018-05-18T02:06:10.932Z,98358.38
2018-05-18T02:07:14.266Z,98356.84
2018-05-18T02:08:17.097Z,98358.12
2018-05-18T02:09:20.280Z,98357.22
2018-05-18T02:10:23.337Z,98359.38
2018-05-18T02:11:26.167Z,98358.48
2018-05-18T02:12:28.908Z,98362.50
2018-05-18T02:13:32.558Z,98353.66
2018-05-18T02:14:36.691Z,98355.69
2018-05-18T02:15:39.771Z,98356.24
2018-05-18T02:16:42.631Z,98354.73
2018-05-18T02:17:45.371Z,98356.44
2018-05-18T02:18:48.539Z,98357.27
